sensor_id;sensor_type;location;lat;lon;timestamp;temperature;humidity
45729;DHT22;31439;53.512;10.206;2023-05-09T00:01:13;13.70;99.90
45729;DHT22;31439;53.512;10.206;2023-05-09T00:03:39;13.80;99.90
45729;DHT22;31439;53.512;10.206;2023-05-09T00:06:07;13.80;99.90
45729;DHT22;31439;53.512;10.206;2023-05-09T00:08:33;13.80;99.90
45729;DHT22;31439;53.512;10.206;2023-05-09T00:11:01;13.80;99.90
45729;DHT22;31439;53.512;10.206;2023-05-09T00:13:26;13.80;99.90
45729;DHT22;31439;53.512;10.206;2023-05-09T00:15:52;13.70;99.90
45729;DHT22;31439;53.512;10.206;2023-05-09T00:18:19;13.60;99.90
45729;DHT22;31439;53.512;10.206;2023-05-09T00:20:44;13.60;99.90
45729;DHT22;31439;53.512;10.206;2023-05-09T00:23:10;13.60;99.90
45729;DHT22;31439;53.512;10.206;2023-05-09T00:25:36;13.60;99.90
45729;DHT22;31439;53.512;10.206;2023-05-09T00:28:01;13.60;99.90
45729;DHT22;31439;53.512;10.206;2023-05-09T00:30:27;13.60;99.90
45729;DHT22;31439;53.512;10.206;2023-05-09T00:32:52;13.60;99.90
45729;DHT22;31439;53.512;10.206;2023-05-09T00:35:18;13.50;99.90
45729;DHT22;31439;53.512;10.206;2023-05-09T00:37:44;13.50;99.90
45729;DHT22;31439;53.512;10.206;2023-05-09T00:40:10;13.50;99.90
45729;DHT22;31439;53.512;10.206;2023-05-09T00:42:36;13.40;99.90
45729;DHT22;31439;53.512;10.206;2023-05-09T00:45:01;13.40;99.90
45729;DHT22;31439;53.512;10.206;2023-05-09T00:47:27;13.40;99.90
45729;DHT22;31439;53.512;10.206;2023-05-09T00:49:54;13.40;99.90
45729;DHT22;31439;53.512;10.206;2023-05-09T00:52:21;13.30;99.90
45729;DHT22;31439;53.512;10.206;2023-05-09T00:54:51;13.20;99.90
45729;DHT22;31439;53.512;10.206;2023-05-09T00:57:17;13.30;99.90
45729;DHT22;31439;53.512;10.206;2023-05-09T00:59:43;13.30;99.90
45729;DHT22;31439;53.512;10.206;2023-05-09T01:02:09;13.20;99.90
45729;DHT22;31439;53.512;10.206;2023-05-09T01:04:35;13.20;99.90
45729;DHT22;31439;53.512;10.206;2023-05-09T01:17:52;13.00;99.90
45729;DHT22;31439;53.512;10.206;2023-05-09T01:20:52;13.00;99.90
45729;DHT22;31439;53.512;10.206;2023-05-09T01:23:44;13.00;99.90
45729;DHT22;31439;53.512;10.206;2023-05-09T01:26:35;13.00;99.90
45729;DHT22;31439;53.512;10.206;2023-05-09T01:31:38;12.90;99.90
45729;DHT22;31439;53.512;10.206;2023-05-09T01:34:05;12.80;99.90
45729;DHT22;31439;53.512;10.206;2023-05-09T01:36:31;12.70;99.90
45729;DHT22;31439;53.512;10.206;2023-05-09T01:38:58;12.70;99.90
45729;DHT22;31439;53.512;10.206;2023-05-09T01:41:30;12.70;99.90
45729;DHT22;31439;53.512;10.206;2023-05-09T01:43:56;12.60;99.90
45729;DHT22;31439;53.512;10.206;2023-05-09T01:46:24;12.70;99.90
45729;DHT22;31439;53.512;10.206;2023-05-09T01:48:52;12.60;99.90
45729;DHT22;31439;53.512;10.206;2023-05-09T01:51:19;12.60;99.90
45729;DHT22;31439;53.512;10.206;2023-05-09T01:53:47;12.50;99.90
45729;DHT22;31439;53.512;10.206;2023-05-09T01:56:14;12.60;99.90
45729;DHT22;31439;53.512;10.206;2023-05-09T01:58:40;12.60;99.90
45729;DHT22;31439;53.512;10.206;2023-05-09T02:01:07;12.60;99.90
45729;DHT22;31439;53.512;10.206;2023-05-09T02:03:33;12.60;99.90
45729;DHT22;31439;53.512;10.206;2023-05-09T02:06:02;12.60;99.90
45729;DHT22;31439;53.512;10.206;2023-05-09T02:08:30;12.60;99.90
45729;DHT22;31439;53.512;10.206;2023-05-09T02:10:56;12.50;99.90
45729;DHT22;31439;53.512;10.206;2023-05-09T02:13:22;12.50;99.90
45729;DHT22;31439;53.512;10.206;2023-05-09T02:15:47;12.50;99.90
45729;DHT22;31439;53.512;10.206;2023-05-09T02:18:13;12.50;99.90
45729;DHT22;31439;53.512;10.206;2023-05-09T02:20:41;12.40;99.90
45729;DHT22;31439;53.512;10.206;2023-05-09T02:23:07;12.40;99.90
45729;DHT22;31439;53.512;10.206;2023-05-09T02:25:33;12.40;99.90
45729;DHT22;31439;53.512;10.206;2023-05-09T02:27:59;12.30;99.90
45729;DHT22;31439;53.512;10.206;2023-05-09T02:30:29;12.30;99.90
45729;DHT22;31439;53.512;10.206;2023-05-09T02:33:02;12.20;99.90
45729;DHT22;31439;53.512;10.206;2023-05-09T02:35:29;12.10;99.90
45729;DHT22;31439;53.512;10.206;2023-05-09T02:37:56;12.10;99.90
45729;DHT22;31439;53.512;10.206;2023-05-09T02:40:23;12.10;99.90
45729;DHT22;31439;53.512;10.206;2023-05-09T02:42:50;11.90;99.90
45729;DHT22;31439;53.512;10.206;2023-05-09T02:45:16;11.90;99.90
45729;DHT22;31439;53.512;10.206;2023-05-09T02:47:42;11.90;99.90
45729;DHT22;31439;53.512;10.206;2023-05-09T02:50:07;11.90;99.90
45729;DHT22;31439;53.512;10.206;2023-05-09T02:52:33;11.90;99.90
45729;DHT22;31439;53.512;10.206;2023-05-09T02:54:59;11.90;99.90
45729;DHT22;31439;53.512;10.206;2023-05-09T02:57:24;11.90;99.90
45729;DHT22;31439;53.512;10.206;2023-05-09T02:59:50;11.80;99.90
45729;DHT22;31439;53.512;10.206;2023-05-09T03:02:16;11.70;99.90
45729;DHT22;31439;53.512;10.206;2023-05-09T03:04:41;11.70;99.90
45729;DHT22;31439;53.512;10.206;2023-05-09T03:07:07;11.60;99.90
45729;DHT22;31439;53.512;10.206;2023-05-09T03:09:33;11.50;99.90
45729;DHT22;31439;53.512;10.206;2023-05-09T03:11:58;11.50;99.90
45729;DHT22;31439;53.512;10.206;2023-05-09T03:14:24;11.50;99.90
45729;DHT22;31439;53.512;10.206;2023-05-09T03:16:50;11.50;99.90
45729;DHT22;31439;53.512;10.206;2023-05-09T03:19:16;11.40;99.90
45729;DHT22;31439;53.512;10.206;2023-05-09T03:21:41;11.40;99.90
45729;DHT22;31439;53.512;10.206;2023-05-09T03:24:07;11.30;99.90
45729;DHT22;31439;53.512;10.206;2023-05-09T03:26:33;11.30;99.90
45729;DHT22;31439;53.512;10.206;2023-05-09T03:29:01;11.30;99.90
45729;DHT22;31439;53.512;10.206;2023-05-09T03:31:27;11.20;99.90
45729;DHT22;31439;53.512;10.206;2023-05-09T03:33:53;11.20;99.90
45729;DHT22;31439;53.512;10.206;2023-05-09T03:36:19;11.20;99.90
45729;DHT22;31439;53.512;10.206;2023-05-09T03:38:44;11.20;99.90
45729;DHT22;31439;53.512;10.206;2023-05-09T03:41:12;11.20;99.90
45729;DHT22;31439;53.512;10.206;2023-05-09T03:43:38;11.20;99.90
45729;DHT22;31439;53.512;10.206;2023-05-09T03:46:03;11.20;99.90
45729;DHT22;31439;53.512;10.206;2023-05-09T03:48:29;11.10;99.90
45729;DHT22;31439;53.512;10.206;2023-05-09T03:50:55;11.00;99.90
45729;DHT22;31439;53.512;10.206;2023-05-09T03:53:20;11.00;99.90
45729;DHT22;31439;53.512;10.206;2023-05-09T03:55:46;11.10;99.90
45729;DHT22;31439;53.512;10.206;2023-05-09T03:58:12;11.10;99.90
45729;DHT22;31439;53.512;10.206;2023-05-09T04:00:37;11.00;99.90
45729;DHT22;31439;53.512;10.206;2023-05-09T04:03:03;11.10;99.90
45729;DHT22;31439;53.512;10.206;2023-05-09T04:05:29;11.10;99.90
45729;DHT22;31439;53.512;10.206;2023-05-09T04:07:55;11.10;99.90
45729;DHT22;31439;53.512;10.206;2023-05-09T04:10:20;11.10;99.90
45729;DHT22;31439;53.512;10.206;2023-05-09T04:12:46;11.10;99.90
45729;DHT22;31439;53.512;10.206;2023-05-09T04:15:12;11.00;99.90
45729;DHT22;31439;53.512;10.206;2023-05-09T04:17:37;10.90;99.90
45729;DHT22;31439;53.512;10.206;2023-05-09T04:20:03;10.80;99.90
45729;DHT22;31439;53.512;10.206;2023-05-09T04:22:29;10.90;99.90
45729;DHT22;31439;53.512;10.206;2023-05-09T04:24:54;10.90;99.90
45729;DHT22;31439;53.512;10.206;2023-05-09T04:27:20;10.90;99.90
45729;DHT22;31439;53.512;10.206;2023-05-09T04:29:46;11.00;99.90
45729;DHT22;31439;53.512;10.206;2023-05-09T04:32:13;11.00;99.90
45729;DHT22;31439;53.512;10.206;2023-05-09T04:34:39;11.00;99.90
45729;DHT22;31439;53.512;10.206;2023-05-09T04:37:05;11.00;99.90
45729;DHT22;31439;53.512;10.206;2023-05-09T04:39:30;10.90;99.90
45729;DHT22;31439;53.512;10.206;2023-05-09T04:41:56;10.90;99.90
45729;DHT22;31439;53.512;10.206;2023-05-09T04:44:22;10.90;99.90
45729;DHT22;31439;53.512;10.206;2023-05-09T04:46:49;11.00;99.90
45729;DHT22;31439;53.512;10.206;2023-05-09T04:49:15;11.10;99.90
45729;DHT22;31439;53.512;10.206;2023-05-09T04:51:40;11.00;99.90
45729;DHT22;31439;53.512;10.206;2023-05-09T04:54:06;11.00;99.90
45729;DHT22;31439;53.512;10.206;2023-05-09T04:56:31;11.10;99.90
45729;DHT22;31439;53.512;10.206;2023-05-09T04:58:57;11.00;99.90
45729;DHT22;31439;53.512;10.206;2023-05-09T05:01:23;11.00;99.90
45729;DHT22;31439;53.512;10.206;2023-05-09T05:03:48;11.10;99.90
45729;DHT22;31439;53.512;10.206;2023-05-09T05:06:14;11.10;99.90
45729;DHT22;31439;53.512;10.206;2023-05-09T05:08:39;11.20;99.90
45729;DHT22;31439;53.512;10.206;2023-05-09T05:11:05;11.20;99.90
45729;DHT22;31439;53.512;10.206;2023-05-09T05:13:31;11.20;99.90
45729;DHT22;31439;53.512;10.206;2023-05-09T05:15:56;11.30;99.90
45729;DHT22;31439;53.512;10.206;2023-05-09T05:18:23;11.40;99.90
45729;DHT22;31439;53.512;10.206;2023-05-09T05:20:48;11.40;99.90
45729;DHT22;31439;53.512;10.206;2023-05-09T05:23:14;11.50;99.90
45729;DHT22;31439;53.512;10.206;2023-05-09T05:25:40;11.50;99.90
45729;DHT22;31439;53.512;10.206;2023-05-09T05:28:05;11.50;99.90
45729;DHT22;31439;53.512;10.206;2023-05-09T05:30:31;11.50;99.90
45729;DHT22;31439;53.512;10.206;2023-05-09T05:32:56;11.60;99.90
45729;DHT22;31439;53.512;10.206;2023-05-09T05:35:22;11.60;99.90
45729;DHT22;31439;53.512;10.206;2023-05-09T05:37:49;11.60;99.90
45729;DHT22;31439;53.512;10.206;2023-05-09T05:40:15;11.70;99.90
45729;DHT22;31439;53.512;10.206;2023-05-09T05:42:40;11.70;99.90
45729;DHT22;31439;53.512;10.206;2023-05-09T05:45:06;11.70;99.90
45729;DHT22;31439;53.512;10.206;2023-05-09T05:47:33;11.70;99.90
45729;DHT22;31439;53.512;10.206;2023-05-09T05:49:59;11.70;99.90
45729;DHT22;31439;53.512;10.206;2023-05-09T05:52:25;11.80;99.90
45729;DHT22;31439;53.512;10.206;2023-05-09T05:54:52;11.80;99.90
45729;DHT22;31439;53.512;10.206;2023-05-09T05:57:18;11.80;99.90
45729;DHT22;31439;53.512;10.206;2023-05-09T05:59:46;11.80;99.90
45729;DHT22;31439;53.512;10.206;2023-05-09T06:02:12;11.80;99.90
45729;DHT22;31439;53.512;10.206;2023-05-09T06:04:38;11.90;99.90
45729;DHT22;31439;53.512;10.206;2023-05-09T06:07:04;11.90;99.90
45729;DHT22;31439;53.512;10.206;2023-05-09T06:09:30;11.90;99.90
45729;DHT22;31439;53.512;10.206;2023-05-09T06:11:55;12.00;99.90
45729;DHT22;31439;53.512;10.206;2023-05-09T06:17:52;12.30;99.90
45729;DHT22;31439;53.512;10.206;2023-05-09T06:20:58;12.30;99.90
45729;DHT22;31439;53.512;10.206;2023-05-09T06:23:24;12.20;99.90
45729;DHT22;31439;53.512;10.206;2023-05-09T06:25:50;12.30;99.90
45729;DHT22;31439;53.512;10.206;2023-05-09T06:28:15;12.40;99.90
45729;DHT22;31439;53.512;10.206;2023-05-09T06:30:41;12.50;99.90
45729;DHT22;31439;53.512;10.206;2023-05-09T06:33:07;12.60;99.90
45729;DHT22;31439;53.512;10.206;2023-05-09T06:35:32;12.60;99.90
45729;DHT22;31439;53.512;10.206;2023-05-09T06:37:58;12.60;99.90
45729;DHT22;31439;53.512;10.206;2023-05-09T06:40:24;12.70;99.90
45729;DHT22;31439;53.512;10.206;2023-05-09T06:42:49;12.70;99.90
45729;DHT22;31439;53.512;10.206;2023-05-09T06:45:15;12.70;99.90
45729;DHT22;31439;53.512;10.206;2023-05-09T06:47:41;12.60;99.90
45729;DHT22;31439;53.512;10.206;2023-05-09T06:50:09;12.70;99.90
45729;DHT22;31439;53.512;10.206;2023-05-09T06:52:35;12.60;99.90
45729;DHT22;31439;53.512;10.206;2023-05-09T06:55:01;12.70;99.90
45729;DHT22;31439;53.512;10.206;2023-05-09T06:57:26;12.70;99.90
45729;DHT22;31439;53.512;10.206;2023-05-09T06:59:52;12.70;99.90
45729;DHT22;31439;53.512;10.206;2023-05-09T07:02:18;12.80;99.90
45729;DHT22;31439;53.512;10.206;2023-05-09T07:04:43;13.00;99.90
45729;DHT22;31439;53.512;10.206;2023-05-09T07:07:09;13.10;99.90
45729;DHT22;31439;53.512;10.206;2023-05-09T07:09:35;13.20;99.90
45729;DHT22;31439;53.512;10.206;2023-05-09T07:12:00;13.20;99.90
45729;DHT22;31439;53.512;10.206;2023-05-09T07:14:32;13.20;99.90
45729;DHT22;31439;53.512;10.206;2023-05-09T07:16:58;13.40;99.90
45729;DHT22;31439;53.512;10.206;2023-05-09T07:19:24;13.30;99.90
45729;DHT22;31439;53.512;10.206;2023-05-09T07:21:49;13.50;99.90
45729;DHT22;31439;53.512;10.206;2023-05-09T07:24:15;13.60;99.90
45729;DHT22;31439;53.512;10.206;2023-05-09T07:26:43;13.60;99.90
45729;DHT22;31439;53.512;10.206;2023-05-09T07:29:14;13.70;99.90
45729;DHT22;31439;53.512;10.206;2023-05-09T07:32:09;13.80;99.90
45729;DHT22;31439;53.512;10.206;2023-05-09T07:35:01;13.80;99.90
45729;DHT22;31439;53.512;10.206;2023-05-09T07:40:39;13.90;99.90
45729;DHT22;31439;53.512;10.206;2023-05-09T07:43:05;14.00;99.90
45729;DHT22;31439;53.512;10.206;2023-05-09T07:45:31;14.10;99.90
45729;DHT22;31439;53.512;10.206;2023-05-09T07:47:56;14.20;99.90
45729;DHT22;31439;53.512;10.206;2023-05-09T07:50:22;14.20;99.90
45729;DHT22;31439;53.512;10.206;2023-05-09T07:52:48;14.30;99.90
45729;DHT22;31439;53.512;10.206;2023-05-09T07:55:13;14.40;99.90
45729;DHT22;31439;53.512;10.206;2023-05-09T07:57:39;14.60;99.90
45729;DHT22;31439;53.512;10.206;2023-05-09T08:00:06;14.70;99.90
45729;DHT22;31439;53.512;10.206;2023-05-09T08:02:32;14.70;99.90
45729;DHT22;31439;53.512;10.206;2023-05-09T08:04:58;14.80;99.90
45729;DHT22;31439;53.512;10.206;2023-05-09T08:07:23;14.80;99.90
45729;DHT22;31439;53.512;10.206;2023-05-09T08:09:49;14.90;99.90
45729;DHT22;31439;53.512;10.206;2023-05-09T08:12:14;15.00;99.90
45729;DHT22;31439;53.512;10.206;2023-05-09T08:14:40;15.00;99.90
45729;DHT22;31439;53.512;10.206;2023-05-09T08:17:06;15.20;99.90
45729;DHT22;31439;53.512;10.206;2023-05-09T08:19:31;15.30;99.90
45729;DHT22;31439;53.512;10.206;2023-05-09T08:21:57;15.50;99.90
45729;DHT22;31439;53.512;10.206;2023-05-09T08:24:23;15.70;99.90
45729;DHT22;31439;53.512;10.206;2023-05-09T08:26:48;15.80;99.90
45729;DHT22;31439;53.512;10.206;2023-05-09T08:29:14;16.00;99.90
45729;DHT22;31439;53.512;10.206;2023-05-09T08:31:43;16.00;99.90
45729;DHT22;31439;53.512;10.206;2023-05-09T08:34:08;16.10;99.90
45729;DHT22;31439;53.512;10.206;2023-05-09T08:36:34;16.20;99.90
45729;DHT22;31439;53.512;10.206;2023-05-09T08:39:00;16.30;99.90
45729;DHT22;31439;53.512;10.206;2023-05-09T08:41:25;16.40;99.90
45729;DHT22;31439;53.512;10.206;2023-05-09T08:43:55;16.50;99.90
45729;DHT22;31439;53.512;10.206;2023-05-09T08:46:38;16.60;99.90
45729;DHT22;31439;53.512;10.206;2023-05-09T08:49:06;16.70;99.90
45729;DHT22;31439;53.512;10.206;2023-05-09T08:51:33;16.80;99.90
45729;DHT22;31439;53.512;10.206;2023-05-09T08:53:59;17.10;99.90
45729;DHT22;31439;53.512;10.206;2023-05-09T08:56:25;17.70;99.90
45729;DHT22;31439;53.512;10.206;2023-05-09T08:58:52;18.10;99.90
45729;DHT22;31439;53.512;10.206;2023-05-09T09:01:19;18.20;99.90
45729;DHT22;31439;53.512;10.206;2023-05-09T09:03:46;18.00;99.90
45729;DHT22;31439;53.512;10.206;2023-05-09T09:06:14;17.90;99.90
45729;DHT22;31439;53.512;10.206;2023-05-09T09:08:41;17.80;99.90
45729;DHT22;31439;53.512;10.206;2023-05-09T09:11:10;17.80;99.90
45729;DHT22;31439;53.512;10.206;2023-05-09T09:13:39;17.80;99.90
45729;DHT22;31439;53.512;10.206;2023-05-09T09:16:08;17.80;99.90
45729;DHT22;31439;53.512;10.206;2023-05-09T09:18:36;17.90;99.90
45729;DHT22;31439;53.512;10.206;2023-05-09T09:21:06;18.00;99.90
45729;DHT22;31439;53.512;10.206;2023-05-09T09:23:33;18.00;99.90
45729;DHT22;31439;53.512;10.206;2023-05-09T09:26:02;18.10;99.90
45729;DHT22;31439;53.512;10.206;2023-05-09T09:28:33;18.10;99.90
45729;DHT22;31439;53.512;10.206;2023-05-09T09:37:55;18.40;99.90
45729;DHT22;31439;53.512;10.206;2023-05-09T09:40:23;18.40;99.90
45729;DHT22;31439;53.512;10.206;2023-05-09T09:42:50;18.40;99.90
45729;DHT22;31439;53.512;10.206;2023-05-09T09:45:18;18.50;99.90
45729;DHT22;31439;53.512;10.206;2023-05-09T09:47:45;18.60;99.90
45729;DHT22;31439;53.512;10.206;2023-05-09T09:50:18;18.70;99.90
45729;DHT22;31439;53.512;10.206;2023-05-09T09:52:55;18.80;99.90
45729;DHT22;31439;53.512;10.206;2023-05-09T09:55:21;19.00;99.90
45729;DHT22;31439;53.512;10.206;2023-05-09T09:57:48;19.10;99.90
45729;DHT22;31439;53.512;10.206;2023-05-09T10:00:23;19.20;99.90
45729;DHT22;31439;53.512;10.206;2023-05-09T10:05:22;19.40;99.90
45729;DHT22;31439;53.512;10.206;2023-05-09T10:07:59;19.40;99.90
45729;DHT22;31439;53.512;10.206;2023-05-09T10:10:32;19.50;99.90
45729;DHT22;31439;53.512;10.206;2023-05-09T10:13:03;19.60;99.90
45729;DHT22;31439;53.512;10.206;2023-05-09T10:15:30;19.70;99.90
45729;DHT22;31439;53.512;10.206;2023-05-09T10:17:58;19.70;99.90
45729;DHT22;31439;53.512;10.206;2023-05-09T10:20:27;19.60;99.90
45729;DHT22;31439;53.512;10.206;2023-05-09T10:23:01;19.70;99.90
45729;DHT22;31439;53.512;10.206;2023-05-09T10:25:37;19.70;99.90
45729;DHT22;31439;53.512;10.206;2023-05-09T10:28:17;19.70;99.90
45729;DHT22;31439;53.512;10.206;2023-05-09T10:33:23;20.00;99.90
45729;DHT22;31439;53.512;10.206;2023-05-09T10:35:51;20.00;98.60
45729;DHT22;31439;53.512;10.206;2023-05-09T10:38:19;20.10;98.40
45729;DHT22;31439;53.512;10.206;2023-05-09T10:40:48;20.20;99.90
45729;DHT22;31439;53.512;10.206;2023-05-09T10:43:13;20.40;99.90
45729;DHT22;31439;53.512;10.206;2023-05-09T10:45:40;20.40;99.90
45729;DHT22;31439;53.512;10.206;2023-05-09T10:48:07;20.40;99.90
45729;DHT22;31439;53.512;10.206;2023-05-09T10:50:34;20.40;97.60
45729;DHT22;31439;53.512;10.206;2023-05-09T10:58:25;20.90;98.20
45729;DHT22;31439;53.512;10.206;2023-05-09T11:00:52;20.90;97.10
45729;DHT22;31439;53.512;10.206;2023-05-09T11:03:18;20.90;96.70
45729;DHT22;31439;53.512;10.206;2023-05-09T11:05:45;20.80;93.40
45729;DHT22;31439;53.512;10.206;2023-05-09T11:10:47;21.00;95.90
45729;DHT22;31439;53.512;10.206;2023-05-09T11:13:17;21.10;95.70
45729;DHT22;31439;53.512;10.206;2023-05-09T11:16:03;21.10;93.50
45729;DHT22;31439;53.512;10.206;2023-05-09T11:18:32;21.10;94.10
45729;DHT22;31439;53.512;10.206;2023-05-09T11:20:58;21.20;98.20
45729;DHT22;31439;53.512;10.206;2023-05-09T11:23:29;21.40;94.30
45729;DHT22;31439;53.512;10.206;2023-05-09T11:26:05;21.50;93.90
45729;DHT22;31439;53.512;10.206;2023-05-09T11:28:36;21.60;92.50
45729;DHT22;31439;53.512;10.206;2023-05-09T11:31:13;21.70;94.20
45729;DHT22;31439;53.512;10.206;2023-05-09T11:33:40;21.80;93.10
45729;DHT22;31439;53.512;10.206;2023-05-09T11:38:43;21.60;91.90
45729;DHT22;31439;53.512;10.206;2023-05-09T11:41:09;21.80;93.70
45729;DHT22;31439;53.512;10.206;2023-05-09T11:46:02;22.00;94.90
45729;DHT22;31439;53.512;10.206;2023-05-09T11:48:28;22.00;86.70
45729;DHT22;31439;53.512;10.206;2023-05-09T11:50:54;22.00;87.60
45729;DHT22;31439;53.512;10.206;2023-05-09T11:53:19;22.00;90.20
45729;DHT22;31439;53.512;10.206;2023-05-09T11:55:45;22.00;87.80
45729;DHT22;31439;53.512;10.206;2023-05-09T11:58:11;21.90;86.20
45729;DHT22;31439;53.512;10.206;2023-05-09T12:00:43;21.80;82.70
45729;DHT22;31439;53.512;10.206;2023-05-09T12:03:09;21.60;85.50
45729;DHT22;31439;53.512;10.206;2023-05-09T12:05:36;21.70;84.10
45729;DHT22;31439;53.512;10.206;2023-05-09T12:08:05;21.80;86.50
45729;DHT22;31439;53.512;10.206;2023-05-09T12:10:31;21.90;91.00
45729;DHT22;31439;53.512;10.206;2023-05-09T12:12:57;22.00;84.90
45729;DHT22;31439;53.512;10.206;2023-05-09T12:15:23;22.00;85.70
45729;DHT22;31439;53.512;10.206;2023-05-09T12:18:02;22.20;87.30
45729;DHT22;31439;53.512;10.206;2023-05-09T12:20:42;22.20;82.10
45729;DHT22;31439;53.512;10.206;2023-05-09T12:23:10;22.20;82.70
45729;DHT22;31439;53.512;10.206;2023-05-09T12:25:36;22.10;83.40
45729;DHT22;31439;53.512;10.206;2023-05-09T12:28:02;22.20;83.40
45729;DHT22;31439;53.512;10.206;2023-05-09T12:30:28;22.20;83.70
45729;DHT22;31439;53.512;10.206;2023-05-09T12:32:54;22.20;84.30
45729;DHT22;31439;53.512;10.206;2023-05-09T12:35:20;22.20;81.40
45729;DHT22;31439;53.512;10.206;2023-05-09T12:37:55;22.20;84.90
45729;DHT22;31439;53.512;10.206;2023-05-09T12:40:22;22.20;81.50
45729;DHT22;31439;53.512;10.206;2023-05-09T12:42:47;22.10;82.10
45729;DHT22;31439;53.512;10.206;2023-05-09T12:45:13;22.00;81.10
45729;DHT22;31439;53.512;10.206;2023-05-09T12:47:39;21.80;81.60
45729;DHT22;31439;53.512;10.206;2023-05-09T12:50:08;21.70;81.50
45729;DHT22;31439;53.512;10.206;2023-05-09T15:46:32;22.70;72.50
45729;DHT22;31439;53.512;10.206;2023-05-09T15:48:57;23.10;59.60
45729;DHT22;31439;53.512;10.206;2023-05-09T15:51:23;22.90;60.20
45729;DHT22;31439;53.512;10.206;2023-05-09T15:53:49;22.90;60.80
45729;DHT22;31439;53.512;10.206;2023-05-09T15:56:15;23.00;60.50
45729;DHT22;31439;53.512;10.206;2023-05-09T15:58:40;23.10;62.20
45729;DHT22;31439;53.512;10.206;2023-05-09T16:01:06;23.10;61.00
45729;DHT22;31439;53.512;10.206;2023-05-09T16:03:35;23.10;60.50
45729;DHT22;31439;53.512;10.206;2023-05-09T16:06:01;23.10;59.70
45729;DHT22;31439;53.512;10.206;2023-05-09T16:08:27;22.90;58.70
45729;DHT22;31439;53.512;10.206;2023-05-09T16:10:53;22.60;58.90
45729;DHT22;31439;53.512;10.206;2023-05-09T16:13:18;22.50;60.00
45729;DHT22;31439;53.512;10.206;2023-05-09T16:15:44;22.50;60.00
45729;DHT22;31439;53.512;10.206;2023-05-09T16:18:12;22.60;60.00
45729;DHT22;31439;53.512;10.206;2023-05-09T16:20:37;22.70;60.10
45729;DHT22;31439;53.512;10.206;2023-05-09T16:23:03;22.60;58.90
45729;DHT22;31439;53.512;10.206;2023-05-09T16:25:29;22.40;58.90
45729;DHT22;31439;53.512;10.206;2023-05-09T16:27:55;22.40;59.10
45729;DHT22;31439;53.512;10.206;2023-05-09T16:30:20;22.50;60.30
45729;DHT22;31439;53.512;10.206;2023-05-09T16:32:46;22.50;59.80
45729;DHT22;31439;53.512;10.206;2023-05-09T16:35:11;22.60;59.80
45729;DHT22;31439;53.512;10.206;2023-05-09T16:37:37;22.60;59.40
45729;DHT22;31439;53.512;10.206;2023-05-09T16:40:06;22.70;60.20
45729;DHT22;31439;53.512;10.206;2023-05-09T16:42:32;22.80;59.30
45729;DHT22;31439;53.512;10.206;2023-05-09T16:44:57;22.90;58.50
45729;DHT22;31439;53.512;10.206;2023-05-09T16:47:23;22.90;57.90
45729;DHT22;31439;53.512;10.206;2023-05-09T16:49:49;22.90;57.50
45729;DHT22;31439;53.512;10.206;2023-05-09T16:52:14;22.70;58.20
45729;DHT22;31439;53.512;10.206;2023-05-09T16:54:40;22.70;58.50
45729;DHT22;31439;53.512;10.206;2023-05-09T16:57:06;22.60;57.50
45729;DHT22;31439;53.512;10.206;2023-05-09T16:59:31;22.60;58.20
45729;DHT22;31439;53.512;10.206;2023-05-09T17:01:57;22.60;58.00
45729;DHT22;31439;53.512;10.206;2023-05-09T17:04:23;22.50;57.30
45729;DHT22;31439;53.512;10.206;2023-05-09T17:06:49;22.30;57.20
45729;DHT22;31439;53.512;10.206;2023-05-09T17:09:16;22.00;57.70
45729;DHT22;31439;53.512;10.206;2023-05-09T17:11:42;21.90;57.60
45729;DHT22;31439;53.512;10.206;2023-05-09T17:14:08;21.80;57.90
45729;DHT22;31439;53.512;10.206;2023-05-09T17:16:34;21.70;57.20
45729;DHT22;31439;53.512;10.206;2023-05-09T17:19:00;21.60;57.00
45729;DHT22;31439;53.512;10.206;2023-05-09T17:21:26;21.60;57.50
45729;DHT22;31439;53.512;10.206;2023-05-09T17:23:52;21.40;57.60
45729;DHT22;31439;53.512;10.206;2023-05-09T17:26:19;21.30;57.80
45729;DHT22;31439;53.512;10.206;2023-05-09T17:28:44;21.20;57.80
45729;DHT22;31439;53.512;10.206;2023-05-09T17:31:10;21.00;58.20
45729;DHT22;31439;53.512;10.206;2023-05-09T17:33:37;20.90;58.30
45729;DHT22;31439;53.512;10.206;2023-05-09T17:36:04;20.90;59.70
45729;DHT22;31439;53.512;10.206;2023-05-09T17:38:30;20.90;59.30
45729;DHT22;31439;53.512;10.206;2023-05-09T17:40:56;20.80;58.90
45729;DHT22;31439;53.512;10.206;2023-05-09T17:43:22;20.70;59.50
45729;DHT22;31439;53.512;10.206;2023-05-09T17:45:49;20.60;59.00
45729;DHT22;31439;53.512;10.206;2023-05-09T17:48:16;20.50;59.10
45729;DHT22;31439;53.512;10.206;2023-05-09T17:50:41;20.40;59.40
45729;DHT22;31439;53.512;10.206;2023-05-09T17:53:08;20.30;59.10
45729;DHT22;31439;53.512;10.206;2023-05-09T17:55:34;20.20;59.30
45729;DHT22;31439;53.512;10.206;2023-05-09T17:58:03;20.10;59.60
45729;DHT22;31439;53.512;10.206;2023-05-09T18:00:28;20.10;60.80
45729;DHT22;31439;53.512;10.206;2023-05-09T18:02:56;20.10;60.40
45729;DHT22;31439;53.512;10.206;2023-05-09T18:05:22;20.00;59.80
45729;DHT22;31439;53.512;10.206;2023-05-09T18:07:48;20.00;59.90
45729;DHT22;31439;53.512;10.206;2023-05-09T18:10:14;19.90;61.00
45729;DHT22;31439;53.512;10.206;2023-05-09T18:12:39;19.80;60.70
45729;DHT22;31439;53.512;10.206;2023-05-09T18:15:06;19.90;60.30
45729;DHT22;31439;53.512;10.206;2023-05-09T18:17:32;19.80;61.10
45729;DHT22;31439;53.512;10.206;2023-05-09T18:19:57;19.70;61.00
45729;DHT22;31439;53.512;10.206;2023-05-09T18:22:23;19.60;61.80
45729;DHT22;31439;53.512;10.206;2023-05-09T18:24:50;19.60;61.70
45729;DHT22;31439;53.512;10.206;2023-05-09T18:27:16;19.60;62.90
45729;DHT22;31439;53.512;10.206;2023-05-09T18:29:42;19.60;62.70
45729;DHT22;31439;53.512;10.206;2023-05-09T18:32:09;19.50;62.50
45729;DHT22;31439;53.512;10.206;2023-05-09T18:34:36;19.50;62.90
45729;DHT22;31439;53.512;10.206;2023-05-09T18:37:01;19.40;63.50
45729;DHT22;31439;53.512;10.206;2023-05-09T18:39:28;19.40;63.50
45729;DHT22;31439;53.512;10.206;2023-05-09T18:41:53;19.30;64.10
45729;DHT22;31439;53.512;10.206;2023-05-09T18:44:19;19.20;63.90
45729;DHT22;31439;53.512;10.206;2023-05-09T18:46:44;19.30;64.70
45729;DHT22;31439;53.512;10.206;2023-05-09T18:49:10;19.10;65.30
45729;DHT22;31439;53.512;10.206;2023-05-09T18:51:36;19.10;65.70
45729;DHT22;31439;53.512;10.206;2023-05-09T18:54:02;19.10;66.60